sensor_id;sensor_type;location;lat;lon;timestamp;P1;durP1;ratioP1;P2;durP2;ratioP2
57899;SDS011;60605;53.716;19.940;2023-10-19T00:02:49;74.00;;;19.00;;
57899;SDS011;60605;53.716;19.940;2023-10-19T00:08:01;171.10;;;30.60;;
57899;SDS011;60605;53.716;19.940;2023-10-19T00:13:16;101.10;;;18.60;;
57899;SDS011;60605;53.716;19.940;2023-10-19T00:18:22;237.00;;;20.40;;
57899;SDS011;60605;53.716;19.940;2023-10-19T00:23:25;180.70;;;19.20;;
57899;SDS011;60605;53.716;19.940;2023-10-19T00:28:31;134.20;;;27.70;;
57899;SDS011;60605;53.716;19.940;2023-10-19T00:33:38;83.50;;;13.80;;
57899;SDS011;60605;53.716;19.940;2023-10-19T00:38:42;161.80;;;14.30;;
57899;SDS011;60605;53.716;19.940;2023-10-19T00:43:59;31.20;;;10.70;;
57899;SDS011;60605;53.716;19.940;2023-10-19T00:49:06;33.60;;;11.80;;
57899;SDS011;60605;53.716;19.940;2023-10-19T00:59:41;54.10;;;18.90;;
57899;SDS011;60605;53.716;19.940;2023-10-19T01:04:57;114.80;;;34.50;;
57899;SDS011;60605;53.716;19.940;2023-10-19T01:10:08;136.30;;;17.00;;
57899;SDS011;60605;53.716;19.940;2023-10-19T01:15:16;47.10;;;14.10;;
57899;SDS011;60605;53.716;19.940;2023-10-19T01:20:27;89.50;;;13.00;;
57899;SDS011;60605;53.716;19.940;2023-10-19T01:25:44;109.60;;;15.90;;
57899;SDS011;60605;53.716;19.940;2023-10-19T01:31:00;65.40;;;11.70;;
57899;SDS011;60605;53.716;19.940;2023-10-19T01:36:09;63.60;;;11.60;;
57899;SDS011;60605;53.716;19.940;2023-10-19T01:41:13;30.80;;;10.10;;
57899;SDS011;60605;53.716;19.940;2023-10-19T01:46:19;49.70;;;9.60;;
57899;SDS011;60605;53.716;19.940;2023-10-19T01:51:28;33.40;;;8.00;;
57899;SDS011;60605;53.716;19.940;2023-10-19T01:56:42;66.40;;;8.70;;
57899;SDS011;60605;53.716;19.940;2023-10-19T02:01:46;52.00;;;9.50;;
57899;SDS011;60605;53.716;19.940;2023-10-19T02:06:51;95.60;;;14.10;;
57899;SDS011;60605;53.716;19.940;2023-10-19T02:11:56;132.40;;;20.00;;
57899;SDS011;60605;53.716;19.940;2023-10-19T02:17:00;157.20;;;21.70;;
57899;SDS011;60605;53.716;19.940;2023-10-19T02:22:05;93.50;;;18.30;;
57899;SDS011;60605;53.716;19.940;2023-10-19T02:27:14;48.10;;;17.40;;
57899;SDS011;60605;53.716;19.940;2023-10-19T02:32:34;44.60;;;16.10;;
57899;SDS011;60605;53.716;19.940;2023-10-19T02:37:38;86.80;;;17.20;;
57899;SDS011;60605;53.716;19.940;2023-10-19T02:42:41;168.00;;;15.30;;
57899;SDS011;60605;53.716;19.940;2023-10-19T02:47:45;58.70;;;13.30;;
57899;SDS011;60605;53.716;19.940;2023-10-19T02:52:49;65.30;;;12.10;;
57899;SDS011;60605;53.716;19.940;2023-10-19T02:57:52;98.60;;;9.70;;
57899;SDS011;60605;53.716;19.940;2023-10-19T03:02:56;99.40;;;10.20;;
57899;SDS011;60605;53.716;19.940;2023-10-19T03:08:01;154.60;;;10.60;;
57899;SDS011;60605;53.716;19.940;2023-10-19T03:13:08;99.80;;;8.70;;
57899;SDS011;60605;53.716;19.940;2023-10-19T03:18:12;104.70;;;9.20;;
57899;SDS011;60605;53.716;19.940;2023-10-19T03:23:16;42.70;;;8.00;;
57899;SDS011;60605;53.716;19.940;2023-10-19T03:28:19;39.40;;;7.00;;
57899;SDS011;60605;53.716;19.940;2023-10-19T03:33:22;45.60;;;6.30;;
57899;SDS011;60605;53.716;19.940;2023-10-19T03:38:30;38.50;;;5.50;;
57899;SDS011;60605;53.716;19.940;2023-10-19T03:43:39;28.20;;;5.10;;
57899;SDS011;60605;53.716;19.940;2023-10-19T03:48:44;44.00;;;5.90;;
57899;SDS011;60605;53.716;19.940;2023-10-19T03:53:49;62.00;;;6.70;;
57899;SDS011;60605;53.716;19.940;2023-10-19T03:58:57;32.90;;;5.70;;
57899;SDS011;60605;53.716;19.940;2023-10-19T04:04:01;11.20;;;5.30;;
57899;SDS011;60605;53.716;19.940;2023-10-19T04:09:05;21.20;;;5.60;;
57899;SDS011;60605;53.716;19.940;2023-10-19T04:14:09;14.20;;;5.90;;
57899;SDS011;60605;53.716;19.940;2023-10-19T04:19:13;6.80;;;5.70;;
57899;SDS011;60605;53.716;19.940;2023-10-19T04:24:19;22.20;;;10.20;;
57899;SDS011;60605;53.716;19.940;2023-10-19T04:29:23;22.30;;;7.30;;
57899;SDS011;60605;53.716;19.940;2023-10-19T04:34:30;16.90;;;8.00;;
57899;SDS011;60605;53.716;19.940;2023-10-19T04:39:34;23.10;;;7.40;;
57899;SDS011;60605;53.716;19.940;2023-10-19T04:44:37;41.50;;;8.40;;
57899;SDS011;60605;53.716;19.940;2023-10-19T04:49:41;31.90;;;9.30;;
57899;SDS011;60605;53.716;19.940;2023-10-19T04:54:44;46.90;;;10.90;;
57899;SDS011;60605;53.716;19.940;2023-10-19T05:04:51;48.40;;;19.60;;
57899;SDS011;60605;53.716;19.940;2023-10-19T05:09:55;22.20;;;10.40;;
57899;SDS011;60605;53.716;19.940;2023-10-19T05:14:58;51.30;;;13.70;;
57899;SDS011;60605;53.716;19.940;2023-10-19T05:20:02;53.80;;;16.70;;
57899;SDS011;60605;53.716;19.940;2023-10-19T05:25:08;84.80;;;14.90;;
57899;SDS011;60605;53.716;19.940;2023-10-19T05:30:12;107.60;;;18.20;;
57899;SDS011;60605;53.716;19.940;2023-10-19T05:35:16;49.30;;;14.10;;
57899;SDS011;60605;53.716;19.940;2023-10-19T05:40:25;35.10;;;11.80;;
57899;SDS011;60605;53.716;19.940;2023-10-19T05:45:33;81.70;;;20.50;;
57899;SDS011;60605;53.716;19.940;2023-10-19T05:50:43;66.80;;;29.20;;
57899;SDS011;60605;53.716;19.940;2023-10-19T05:55:47;98.50;;;63.10;;
57899;SDS011;60605;53.716;19.940;2023-10-19T06:00:50;46.40;;;21.20;;
57899;SDS011;60605;53.716;19.940;2023-10-19T06:05:55;31.50;;;15.60;;
57899;SDS011;60605;53.716;19.940;2023-10-19T06:10:59;20.50;;;9.80;;
57899;SDS011;60605;53.716;19.940;2023-10-19T06:16:03;37.30;;;14.90;;
57899;SDS011;60605;53.716;19.940;2023-10-19T06:21:07;28.90;;;13.80;;
57899;SDS011;60605;53.716;19.940;2023-10-19T06:31:15;29.30;;;12.10;;
57899;SDS011;60605;53.716;19.940;2023-10-19T06:36:18;22.90;;;10.90;;
57899;SDS011;60605;53.716;19.940;2023-10-19T06:41:22;33.00;;;14.10;;
57899;SDS011;60605;53.716;19.940;2023-10-19T06:46:26;21.70;;;16.10;;
57899;SDS011;60605;53.716;19.940;2023-10-19T06:51:30;23.70;;;12.80;;
57899;SDS011;60605;53.716;19.940;2023-10-19T06:56:35;25.80;;;13.90;;
57899;SDS011;60605;53.716;19.940;2023-10-19T07:01:40;23.00;;;14.50;;
57899;SDS011;60605;53.716;19.940;2023-10-19T07:06:43;23.20;;;13.50;;
57899;SDS011;60605;53.716;19.940;2023-10-19T07:11:47;27.10;;;16.00;;
57899;SDS011;60605;53.716;19.940;2023-10-19T07:16:51;52.30;;;34.70;;
57899;SDS011;60605;53.716;19.940;2023-10-19T07:21:54;59.90;;;39.80;;
57899;SDS011;60605;53.716;19.940;2023-10-19T07:27:00;48.80;;;34.30;;
57899;SDS011;60605;53.716;19.940;2023-10-19T07:32:24;22.00;;;14.30;;
57899;SDS011;60605;53.716;19.940;2023-10-19T07:37:28;21.50;;;15.40;;
57899;SDS011;60605;53.716;19.940;2023-10-19T07:42:32;24.30;;;17.80;;
57899;SDS011;60605;53.716;19.940;2023-10-19T07:47:41;28.00;;;18.70;;
57899;SDS011;60605;53.716;19.940;2023-10-19T07:52:45;20.70;;;16.00;;
57899;SDS011;60605;53.716;19.940;2023-10-19T07:57:56;20.00;;;15.60;;
57899;SDS011;60605;53.716;19.940;2023-10-19T08:03:03;21.30;;;16.30;;
57899;SDS011;60605;53.716;19.940;2023-10-19T08:08:10;26.30;;;17.00;;
57899;SDS011;60605;53.716;19.940;2023-10-19T08:13:15;20.50;;;14.40;;
57899;SDS011;60605;53.716;19.940;2023-10-19T08:18:19;18.30;;;14.60;;
57899;SDS011;60605;53.716;19.940;2023-10-19T08:23:23;14.90;;;12.90;;
57899;SDS011;60605;53.716;19.940;2023-10-19T08:28:30;21.90;;;15.90;;
57899;SDS011;60605;53.716;19.940;2023-10-19T08:33:35;38.80;;;21.00;;
57899;SDS011;60605;53.716;19.940;2023-10-19T08:38:41;26.30;;;15.60;;
57899;SDS011;60605;53.716;19.940;2023-10-19T08:43:46;17.20;;;12.40;;
57899;SDS011;60605;53.716;19.940;2023-10-19T08:48:53;16.80;;;12.10;;
57899;SDS011;60605;53.716;19.940;2023-10-19T08:54:00;13.70;;;12.20;;
57899;SDS011;60605;53.716;19.940;2023-10-19T08:59:05;26.10;;;17.70;;
57899;SDS011;60605;53.716;19.940;2023-10-19T09:04:12;11.60;;;8.50;;
57899;SDS011;60605;53.716;19.940;2023-10-19T09:09:16;14.80;;;11.30;;
57899;SDS011;60605;53.716;19.940;2023-10-19T09:14:31;8.80;;;7.90;;
57899;SDS011;60605;53.716;19.940;2023-10-19T09:19:37;8.00;;;6.10;;
57899;SDS011;60605;53.716;19.940;2023-10-19T09:24:43;5.90;;;4.30;;
57899;SDS011;60605;53.716;19.940;2023-10-19T09:29:49;9.40;;;5.80;;
57899;SDS011;60605;53.716;19.940;2023-10-19T09:34:55;17.10;;;8.40;;
57899;SDS011;60605;53.716;19.940;2023-10-19T09:39:59;25.50;;;10.20;;
57899;SDS011;60605;53.716;19.940;2023-10-19T09:45:04;13.50;;;7.10;;
57899;SDS011;60605;53.716;19.940;2023-10-19T09:50:09;21.20;;;9.70;;
57899;SDS011;60605;53.716;19.940;2023-10-19T10:00:36;4.70;;;4.20;;
57899;SDS011;60605;53.716;19.940;2023-10-19T10:10:46;9.10;;;4.60;;
57899;SDS011;60605;53.716;19.940;2023-10-19T10:15:54;4.00;;;3.60;;
57899;SDS011;60605;53.716;19.940;2023-10-19T10:26:09;8.00;;;5.70;;
57899;SDS011;60605;53.716;19.940;2023-10-19T10:31:14;9.30;;;5.80;;
57899;SDS011;60605;53.716;19.940;2023-10-19T10:36:24;24.30;;;12.50;;
57899;SDS011;60605;53.716;19.940;2023-10-19T10:41:29;7.70;;;4.30;;
57899;SDS011;60605;53.716;19.940;2023-10-19T10:46:33;16.90;;;11.00;;
57899;SDS011;60605;53.716;19.940;2023-10-19T10:51:36;10.20;;;8.40;;
57899;SDS011;60605;53.716;19.940;2023-10-19T10:56:42;9.50;;;7.40;;
57899;SDS011;60605;53.716;19.940;2023-10-19T11:01:46;8.30;;;6.20;;
57899;SDS011;60605;53.716;19.940;2023-10-19T11:06:50;6.10;;;4.80;;
57899;SDS011;60605;53.716;19.940;2023-10-19T11:11:55;10.20;;;6.00;;
57899;SDS011;60605;53.716;19.940;2023-10-19T11:17:11;45.80;;;15.80;;
57899;SDS011;60605;53.716;19.940;2023-10-19T11:22:18;12.20;;;7.30;;
57899;SDS011;60605;53.716;19.940;2023-10-19T11:32:35;9.80;;;7.10;;
57899;SDS011;60605;53.716;19.940;2023-10-19T11:42:49;8.20;;;6.80;;
57899;SDS011;60605;53.716;19.940;2023-10-19T11:47:55;6.50;;;5.40;;
57899;SDS011;60605;53.716;19.940;2023-10-19T11:53:00;6.20;;;4.90;;
57899;SDS011;60605;53.716;19.940;2023-10-19T11:58:03;13.70;;;9.70;;
57899;SDS011;60605;53.716;19.940;2023-10-19T12:03:07;17.30;;;11.30;;
57899;SDS011;60605;53.716;19.940;2023-10-19T12:08:10;21.10;;;13.90;;
57899;SDS011;60605;53.716;19.940;2023-10-19T12:13:14;11.10;;;8.70;;
57899;SDS011;60605;53.716;19.940;2023-10-19T12:18:19;11.40;;;9.30;;
57899;SDS011;60605;53.716;19.940;2023-10-19T12:23:23;8.50;;;7.20;;
57899;SDS011;60605;53.716;19.940;2023-10-19T12:28:27;52.50;;;21.00;;
57899;SDS011;60605;53.716;19.940;2023-10-19T12:33:30;71.90;;;31.00;;
57899;SDS011;60605;53.716;19.940;2023-10-19T12:38:33;109.30;;;45.00;;
57899;SDS011;60605;53.716;19.940;2023-10-19T12:43:37;57.60;;;25.70;;
57899;SDS011;60605;53.716;19.940;2023-10-19T12:48:40;39.90;;;24.80;;
57899;SDS011;60605;53.716;19.940;2023-10-19T12:53:43;69.30;;;35.50;;
57899;SDS011;60605;53.716;19.940;2023-10-19T12:58:49;68.00;;;42.80;;
57899;SDS011;60605;53.716;19.940;2023-10-19T13:03:53;53.40;;;32.50;;
57899;SDS011;60605;53.716;19.940;2023-10-19T13:08:56;22.90;;;15.40;;
57899;SDS011;60605;53.716;19.940;2023-10-19T13:14:00;38.80;;;21.40;;
57899;SDS011;60605;53.716;19.940;2023-10-19T13:19:04;37.90;;;20.00;;
57899;SDS011;60605;53.716;19.940;2023-10-19T13:24:17;28.80;;;18.20;;
57899;SDS011;60605;53.716;19.940;2023-10-19T13:29:23;29.50;;;17.90;;
57899;SDS011;60605;53.716;19.940;2023-10-19T13:34:27;24.00;;;15.60;;
57899;SDS011;60605;53.716;19.940;2023-10-19T13:39:30;27.10;;;17.70;;
57899;SDS011;60605;53.716;19.940;2023-10-19T13:44:34;31.90;;;19.00;;
57899;SDS011;60605;53.716;19.940;2023-10-19T13:49:38;29.00;;;17.90;;
57899;SDS011;60605;53.716;19.940;2023-10-19T13:54:43;21.80;;;13.70;;
57899;SDS011;60605;53.716;19.940;2023-10-19T13:59:46;30.50;;;16.10;;
57899;SDS011;60605;53.716;19.940;2023-10-19T14:04:50;25.80;;;15.60;;
57899;SDS011;60605;53.716;19.940;2023-10-19T14:09:54;184.50;;;113.70;;
57899;SDS011;60605;53.716;19.940;2023-10-19T14:20:02;32.50;;;21.60;;
57899;SDS011;60605;53.716;19.940;2023-10-19T14:25:10;14.30;;;9.80;;
57899;SDS011;60605;53.716;19.940;2023-10-19T14:30:17;21.60;;;12.70;;
57899;SDS011;60605;53.716;19.940;2023-10-19T14:35:25;25.00;;;14.50;;
57899;SDS011;60605;53.716;19.940;2023-10-19T14:40:28;24.90;;;16.40;;
57899;SDS011;60605;53.716;19.940;2023-10-19T14:45:32;19.20;;;14.60;;
57899;SDS011;60605;53.716;19.940;2023-10-19T14:50:36;16.60;;;12.60;;
57899;SDS011;60605;53.716;19.940;2023-10-19T14:55:40;14.00;;;9.90;;
57899;SDS011;60605;53.716;19.940;2023-10-19T15:00:48;12.70;;;9.60;;
57899;SDS011;60605;53.716;19.940;2023-10-19T15:05:57;16.40;;;9.80;;
57899;SDS011;60605;53.716;19.940;2023-10-19T15:11:02;12.20;;;8.40;;
57899;SDS011;60605;53.716;19.940;2023-10-19T15:16:09;12.10;;;7.80;;
57899;SDS011;60605;53.716;19.940;2023-10-19T15:21:13;18.70;;;13.40;;
57899;SDS011;60605;53.716;19.940;2023-10-19T15:26:17;11.50;;;8.00;;
57899;SDS011;60605;53.716;19.940;2023-10-19T15:31:21;16.70;;;11.70;;
57899;SDS011;60605;53.716;19.940;2023-10-19T15:36:25;128.10;;;72.00;;
57899;SDS011;60605;53.716;19.940;2023-10-19T15:41:29;27.50;;;20.00;;
57899;SDS011;60605;53.716;19.940;2023-10-19T15:46:32;24.20;;;20.60;;
57899;SDS011;60605;53.716;19.940;2023-10-19T15:51:40;23.20;;;16.40;;
57899;SDS011;60605;53.716;19.940;2023-10-19T15:56:45;23.90;;;16.70;;
57899;SDS011;60605;53.716;19.940;2023-10-19T16:01:48;40.90;;;28.40;;
57899;SDS011;60605;53.716;19.940;2023-10-19T16:06:53;25.50;;;18.60;;
57899;SDS011;60605;53.716;19.940;2023-10-19T16:11:56;71.50;;;39.50;;
57899;SDS011;60605;53.716;19.940;2023-10-19T16:22:05;15.90;;;11.00;;
57899;SDS011;60605;53.716;19.940;2023-10-19T16:27:09;14.50;;;12.10;;
57899;SDS011;60605;53.716;19.940;2023-10-19T16:32:13;19.90;;;12.70;;
57899;SDS011;60605;53.716;19.940;2023-10-19T16:37:16;12.10;;;10.60;;
57899;SDS011;60605;53.716;19.940;2023-10-19T16:42:22;24.80;;;17.70;;
57899;SDS011;60605;53.716;19.940;2023-10-19T16:52:28;34.60;;;21.30;;
57899;SDS011;60605;53.716;19.940;2023-10-19T17:02:36;42.10;;;24.10;;
57899;SDS011;60605;53.716;19.940;2023-10-19T17:07:41;36.50;;;25.70;;
57899;SDS011;60605;53.716;19.940;2023-10-19T17:12:44;84.40;;;44.00;;
57899;SDS011;60605;53.716;19.940;2023-10-19T17:17:48;36.30;;;22.00;;
57899;SDS011;60605;53.716;19.940;2023-10-19T17:22:52;31.70;;;22.30;;
57899;SDS011;60605;53.716;19.940;2023-10-19T17:27:56;29.80;;;20.30;;
57899;SDS011;60605;53.716;19.940;2023-10-19T17:33:00;21.30;;;16.60;;
57899;SDS011;60605;53.716;19.940;2023-10-19T17:38:13;25.40;;;20.00;;
57899;SDS011;60605;53.716;19.940;2023-10-19T17:48:20;39.40;;;25.10;;
57899;SDS011;60605;53.716;19.940;2023-10-19T17:53:23;19.20;;;14.80;;
57899;SDS011;60605;53.716;19.940;2023-10-19T17:58:27;32.20;;;18.60;;
57899;SDS011;60605;53.716;19.940;2023-10-19T18:08:34;24.90;;;17.00;;
57899;SDS011;60605;53.716;19.940;2023-10-19T18:13:41;37.90;;;25.60;;
57899;SDS011;60605;53.716;19.940;2023-10-19T18:18:45;21.50;;;14.80;;
57899;SDS011;60605;53.716;19.940;2023-10-19T18:23:51;22.20;;;15.10;;
57899;SDS011;60605;53.716;19.940;2023-10-19T18:28:55;19.00;;;14.60;;
57899;SDS011;60605;53.716;19.940;2023-10-19T18:39:06;14.40;;;10.80;;
57899;SDS011;60605;53.716;19.940;2023-10-19T18:44:10;21.90;;;15.20;;
57899;SDS011;60605;53.716;19.940;2023-10-19T18:49:15;20.80;;;13.80;;
57899;SDS011;60605;53.716;19.940;2023-10-19T18:54:18;20.40;;;13.60;;
57899;SDS011;60605;53.716;19.940;2023-10-19T18:59:23;14.80;;;10.90;;
57899;SDS011;60605;53.716;19.940;2023-10-19T19:04:27;19.90;;;12.90;;
57899;SDS011;60605;53.716;19.940;2023-10-19T19:19:37;14.70;;;10.70;;
57899;SDS011;60605;53.716;19.940;2023-10-19T19:24:40;10.60;;;7.80;;
57899;SDS011;60605;53.716;19.940;2023-10-19T19:29:45;9.80;;;7.60;;
57899;SDS011;60605;53.716;19.940;2023-10-19T19:34:52;13.60;;;8.60;;
57899;SDS011;60605;53.716;19.940;2023-10-19T19:39:55;9.30;;;7.10;;
57899;SDS011;60605;53.716;19.940;2023-10-19T19:50:03;12.50;;;8.80;;
57899;SDS011;60605;53.716;19.940;2023-10-19T19:55:09;11.50;;;7.70;;
57899;SDS011;60605;53.716;19.940;2023-10-19T20:00:16;12.30;;;8.50;;
57899;SDS011;60605;53.716;19.940;2023-10-19T20:05:21;10.10;;;7.90;;
57899;SDS011;60605;53.716;19.940;2023-10-19T20:10:35;12.00;;;6.70;;
57899;SDS011;60605;53.716;19.940;2023-10-19T20:15:41;10.10;;;8.00;;
57899;SDS011;60605;53.716;19.940;2023-10-19T20:20:46;13.40;;;9.30;;
57899;SDS011;60605;53.716;19.940;2023-10-19T20:25:49;10.60;;;7.90;;
57899;SDS011;60605;53.716;19.940;2023-10-19T20:30:54;11.20;;;7.20;;
57899;SDS011;60605;53.716;19.940;2023-10-19T20:35:58;16.30;;;10.20;;
57899;SDS011;60605;53.716;19.940;2023-10-19T20:41:02;12.60;;;8.80;;
57899;SDS011;60605;53.716;19.940;2023-10-19T20:46:05;16.60;;;11.30;;
57899;SDS011;60605;53.716;19.940;2023-10-19T20:51:17;25.30;;;15.20;;
57899;SDS011;60605;53.716;19.940;2023-10-19T20:56:21;15.80;;;11.10;;
57899;SDS011;60605;53.716;19.940;2023-10-19T21:01:25;17.20;;;11.10;;
57899;SDS011;60605;53.716;19.940;2023-10-19T21:06:29;11.00;;;7.20;;
57899;SDS011;60605;53.716;19.940;2023-10-19T21:11:35;14.70;;;9.40;;
57899;SDS011;60605;53.716;19.940;2023-10-19T21:16:38;14.20;;;9.30;;
57899;SDS011;60605;53.716;19.940;2023-10-19T21:21:42;11.00;;;7.50;;
57899;SDS011;60605;53.716;19.940;2023-10-19T21:26:46;13.70;;;7.20;;
57899;SDS011;60605;53.716;19.940;2023-10-19T21:31:51;11.10;;;7.10;;
57899;SDS011;60605;53.716;19.940;2023-10-19T21:36:55;9.40;;;7.10;;
57899;SDS011;60605;53.716;19.940;2023-10-19T21:41:58;29.10;;;13.20;;
57899;SDS011;60605;53.716;19.940;2023-10-19T21:47:03;13.20;;;8.00;;
57899;SDS011;60605;53.716;19.940;2023-10-19T21:52:07;19.60;;;10.60;;
57899;SDS011;60605;53.716;19.940;2023-10-19T21:57:11;19.00;;;11.20;;
57899;SDS011;60605;53.716;19.940;2023-10-19T22:02:14;12.80;;;8.50;;
57899;SDS011;60605;53.716;19.940;2023-10-19T22:07:19;20.90;;;13.70;;
57899;SDS011;60605;53.716;19.940;2023-10-19T22:17:29;11.60;;;7.50;;
57899;SDS011;60605;53.716;19.940;2023-10-19T22:22:33;11.20;;;7.00;;
57899;SDS011;60605;53.716;19.940;2023-10-19T22:27:39;13.90;;;7.90;;
57899;SDS011;60605;53.716;19.940;2023-10-19T22:32:43;10.80;;;7.90;;
57899;SDS011;60605;53.716;19.940;2023-10-19T22:37:48;10.70;;;6.90;;
57899;SDS011;60605;53.716;19.940;2023-10-19T22:42:52;11.70;;;7.90;;
57899;SDS011;60605;53.716;19.940;2023-10-19T22:47:58;19.80;;;10.40;;
57899;SDS011;60605;53.716;19.940;2023-10-19T22:53:05;11.50;;;7.90;;
57899;SDS011;60605;53.716;19.940;2023-10-19T22:58:09;12.80;;;8.30;;
57899;SDS011;60605;53.716;19.940;2023-10-19T23:03:13;11.90;;;7.80;;
57899;SDS011;60605;53.716;19.940;2023-10-19T23:08:17;13.90;;;8.70;;
57899;SDS011;60605;53.716;19.940;2023-10-19T23:18:25;11.60;;;8.20;;
57899;SDS011;60605;53.716;19.940;2023-10-19T23:23:29;10.40;;;7.70;;
57899;SDS011;60605;53.716;19.940;2023-10-19T23:28:33;11.10;;;7.60;;
57899;SDS011;60605;53.716;19.940;2023-10-19T23:33:37;11.00;;;7.80;;
57899;SDS011;60605;53.716;19.940;2023-10-19T23:38:40;10.60;;;8.60;;
57899;SDS011;60605;53.716;19.940;2023-10-19T23:48:47;12.40;;;10.20;;
57899;SDS011;60605;53.716;19.940;2023-10-19T23:53:50;12.00;;;9.30;;
